Time;durP1;ratioP1;P1;durP2;ratioP2;P2;SDS_P1;SDS_P2;PMS_P1;PMS_P2;Temp;Humidity;BMP_temperature;BMP_pressure;BME280_temperature;BME280_humidity;BME280_pressure;Samples;Min_cycle;Max_cycle;Signal;HPM_P1;HPM_P2
2022/03/09 00:00:49;;;;;;;21.55;11.15;;;;;;;0.38;62.26;102134.63;5032482;28;20424;-75
2022/03/09 00:03:14;;;;;;;21.05;11.02;;;;;;;0.31;62.65;102130.94;5037103;28;20079;-75
2022/03/09 00:05:41;;;;;;;21.30;11.10;;;;;;;0.33;62.03;102141.28;5035338;28;20029;-74
2022/03/09 00:08:06;;;;;;;20.92;10.85;;;;;;;0.31;62.23;102141.19;5033086;28;20087;-74
2022/03/09 00:10:31;;;;;;;17.75;9.60;;;;;;;0.28;61.89;102129.94;5032405;28;20061;-75
2022/03/09 00:12:57;;;;;;;15.52;9.88;;;;;;;0.32;61.95;102142.06;5032179;28;20076;-75
2022/03/09 00:15:22;;;;;;;18.65;10.90;;;;;;;0.27;62.14;102139.34;5051217;28;20855;-74
2022/03/09 00:17:48;;;;;;;16.35;9.88;;;;;;;0.25;61.42;102133.25;5050721;28;20024;-74
2022/03/09 00:20:13;;;;;;;17.27;10.32;;;;;;;0.25;62.63;102140.09;5051377;28;20116;-75
2022/03/09 00:22:38;;;;;;;19.83;10.43;;;;;;;0.23;62.44;102148.59;5051446;28;20032;-74
2022/03/09 00:25:04;;;;;;;20.55;11.43;;;;;;;0.19;62.14;102144.16;5051995;28;20163;-75
2022/03/09 00:27:32;;;;;;;19.70;11.60;;;;;;;0.13;62.63;102136.25;5051568;28;20040;-74
2022/03/09 00:29:57;;;;;;;21.27;11.05;;;;;;;0.15;62.35;102144.84;5031880;28;20037;-75
2022/03/09 00:32:22;;;;;;;19.98;10.43;;;;;;;0.13;64.16;102143.03;5032865;28;20477;-74
2022/03/09 00:34:48;;;;;;;19.63;10.00;;;;;;;0.02;62.14;102127.22;5033070;28;20033;-75
2022/03/09 00:37:13;;;;;;;21.80;10.80;;;;;;;0.11;62.21;102144.69;5031338;28;20033;-75
2022/03/09 00:39:38;;;;;;;18.98;9.80;;;;;;;0.12;62.47;102143.84;5047231;28;20116;-74
2022/03/09 00:42:04;;;;;;;17.30;9.32;;;;;;;0.07;62.08;102137.69;5052035;28;20052;-74
2022/03/09 00:44:30;;;;;;;17.60;9.68;;;;;;;0.12;61.67;102143.84;5050797;28;20028;-74
2022/03/09 00:46:56;;;;;;;26.02;10.10;;;;;;;0.13;62.31;102154.19;5051641;28;20054;-74
2022/03/09 00:49:22;;;;;;;17.95;9.45;;;;;;;0.11;61.46;102144.69;5049525;28;20037;-74
2022/03/09 00:51:47;;;;;;;18.23;9.60;;;;;;;0.04;61.21;102143.56;5051058;28;20032;-74
2022/03/09 00:54:12;;;;;;;16.60;9.77;;;;;;;0.08;62.10;102135.16;5041100;28;20384;-74
2022/03/09 00:56:38;;;;;;;16.25;9.63;;;;;;;0.08;62.78;102144.56;5031818;28;20060;-74
2022/03/09 00:59:03;;;;;;;16.70;9.80;;;;;;;0.04;61.53;102145.25;5041289;28;20174;-74
2022/03/09 01:01:28;;;;;;;18.48;9.63;;;;;;;-0.01;63.86;102139.91;5051463;28;20033;-74
2022/03/09 01:03:53;;;;;;;16.23;8.95;;;;;;;-0.05;64.39;102146.59;5049675;28;20017;-74
2022/03/09 01:06:19;;;;;;;15.63;9.15;;;;;;;-0.15;63.47;102151.31;5050974;28;20431;-74
2022/03/09 01:08:44;;;;;;;16.77;9.40;;;;;;;-0.18;63.22;102151.19;5043732;28;20034;-75
2022/03/09 01:11:09;;;;;;;16.90;9.70;;;;;;;-0.24;64.75;102144.97;5031681;28;20025;-74
2022/03/09 01:13:35;;;;;;;15.60;9.55;;;;;;;-0.29;65.09;102143.94;5032463;28;20025;-74
2022/03/09 01:16:01;;;;;;;18.10;10.70;;;;;;;-0.30;66.66;102147.28;5051268;28;20025;-75
2022/03/09 01:18:26;;;;;;;15.98;9.52;;;;;;;-0.36;65.25;102152.19;5045653;28;20033;-75
2022/03/09 01:20:51;;;;;;;18.25;10.40;;;;;;;-0.39;65.42;102143.44;5031596;28;20389;-75
2022/03/09 01:23:16;;;;;;;25.30;9.80;;;;;;;-0.51;65.54;102136.16;5033263;28;20036;-74
2022/03/09 01:25:42;;;;;;;16.25;9.00;;;;;;;-0.46;64.22;102139.75;5050685;28;20044;-75
2022/03/09 01:28:07;;;;;;;17.55;9.65;;;;;;;-0.49;64.54;102137.09;5049364;28;20086;-74
2022/03/09 01:30:32;;;;;;;18.55;9.50;;;;;;;-0.54;64.68;102138.56;5031390;28;20026;-75
2022/03/09 01:32:57;;;;;;;17.55;10.00;;;;;;;-0.57;65.05;102141.88;5030708;28;20029;-75
2022/03/09 01:35:23;;;;;;;17.52;9.65;;;;;;;-0.58;64.85;102136.69;5032431;28;20449;-75
2022/03/09 01:37:48;;;;;;;19.05;10.10;;;;;;;-0.58;64.89;102144.38;5031589;28;20418;-74
2022/03/09 01:40:14;;;;;;;18.15;10.10;;;;;;;-0.61;66.17;102149.38;5051457;28;20472;-74
2022/03/09 01:42:40;;;;;;;18.92;9.30;;;;;;;-0.63;65.72;102145.84;5055187;28;20029;-75
2022/03/09 01:45:09;;;;;;;16.40;9.60;;;;;;;-0.63;65.57;102136.47;5041338;28;20045;-75
2022/03/09 01:47:35;;;;;;;16.92;8.90;;;;;;;-0.71;65.58;102128.47;5034602;28;20033;-74
2022/03/09 01:50:00;;;;;;;16.15;9.27;;;;;;;-0.63;64.64;102133.06;5051841;28;20055;-75
2022/03/09 01:52:26;;;;;;;24.77;10.43;;;;;;;-0.62;64.75;102137.34;5055018;28;20388;-75
2022/03/09 01:54:52;;;;;;;17.55;9.50;;;;;;;-0.65;66.00;102138.13;5042112;28;20029;-75
2022/03/09 01:57:19;;;;;;;22.75;10.25;;;;;;;-0.69;65.87;102132.78;5034996;28;20033;-75
2022/03/09 01:59:47;;;;;;;16.15;9.13;;;;;;;-0.73;65.82;102139.47;5049048;28;20039;-75
2022/03/09 02:02:12;;;;;;;16.65;10.15;;;;;;;-0.80;67.08;102129.78;5053926;28;20495;-75
2022/03/09 02:04:38;;;;;;;17.27;9.68;;;;;;;-0.80;66.88;102128.09;5052851;28;20029;-74
2022/03/09 02:07:07;;;;;;;16.13;9.57;;;;;;;-0.83;65.37;102121.94;5053948;28;20428;-75
2022/03/09 02:09:41;;;;;;;17.20;9.25;;;;;;;-0.84;65.67;102128.75;5045686;28;20029;-75
2022/03/09 02:12:11;;;;;;;19.15;10.38;;;;;;;-0.84;66.77;102126.19;5034865;28;20021;-74
2022/03/09 02:14:43;;;;;;;17.98;9.05;;;;;;;-0.88;65.88;102128.53;5040265;28;20028;-74
2022/03/09 02:17:16;;;;;;;19.05;10.45;;;;;;;-0.91;67.72;102131.88;5055164;28;20402;-74
2022/03/09 02:19:43;;;;;;;18.98;9.60;;;;;;;-0.92;67.35;102132.66;5040755;28;20063;-74
2022/03/09 02:22:24;;;;;;;15.80;9.25;;;;;;;-0.97;66.78;102140.16;5034096;28;20053;-74
2022/03/09 02:24:51;;;;;;;18.65;9.85;;;;;;;-1.00;67.36;102140.00;5037276;28;20091;-74
2022/03/09 02:27:20;;;;;;;20.05;9.60;;;;;;;-1.04;67.37;102138.13;5054375;28;20021;-74
2022/03/09 02:29:46;;;;;;;17.77;10.10;;;;;;;-1.08;67.03;102131.13;5039635;28;20037;-75
2022/03/09 02:32:11;;;;;;;19.83;9.57;;;;;;;-1.10;67.94;102125.06;5034378;28;20030;-74
2022/03/09 02:34:36;;;;;;;17.73;9.27;;;;;;;-1.09;67.73;102129.34;5034342;28;20450;-75
2022/03/09 02:37:02;;;;;;;17.25;9.40;;;;;;;-1.11;67.34;102131.00;5034589;28;21893;-74
2022/03/09 02:39:27;;;;;;;18.42;9.52;;;;;;;-1.15;67.38;102133.31;5045020;28;20033;-74
2022/03/09 02:41:53;;;;;;;17.60;9.65;;;;;;;-1.21;69.06;102137.38;5053990;28;20393;-74
2022/03/09 02:44:18;;;;;;;16.38;9.55;;;;;;;-1.24;69.51;102127.00;5053455;28;20021;-74
2022/03/09 02:46:43;;;;;;;16.52;9.65;;;;;;;-1.29;69.81;102118.22;5046722;28;20029;-74
2022/03/09 02:49:09;;;;;;;18.35;9.48;;;;;;;-1.33;69.01;102121.47;5042547;28;20112;-74
2022/03/09 02:51:34;;;;;;;17.23;9.68;;;;;;;-1.40;69.54;102114.31;5052345;28;20373;-74
2022/03/09 02:54:01;;;;;;;18.23;9.93;;;;;;;-1.41;69.89;102117.66;5051933;28;20524;-74
2022/03/09 02:56:27;;;;;;;22.30;10.55;;;;;;;-1.44;69.44;102109.84;5053978;28;20039;-74
2022/03/09 02:58:52;;;;;;;17.88;10.20;;;;;;;-1.49;69.68;102112.22;5046987;28;20034;-74
2022/03/09 03:01:17;;;;;;;18.17;9.98;;;;;;;-1.52;69.91;102112.06;5042813;28;20116;-74
2022/03/09 03:03:43;;;;;;;16.30;9.68;;;;;;;-1.55;70.33;102111.91;5053595;28;20033;-74
2022/03/09 03:06:09;;;;;;;18.17;9.65;;;;;;;-1.57;71.23;102108.44;5053249;28;20381;-74
2022/03/09 03:08:37;;;;;;;17.60;10.00;;;;;;;-1.57;70.97;102120.31;5044519;28;20031;-74
2022/03/09 03:11:03;;;;;;;22.95;10.95;;;;;;;-1.58;71.69;102116.03;5053238;28;20017;-74
2022/03/09 03:13:28;;;;;;;16.25;9.93;;;;;;;-1.63;71.22;102112.41;5053678;28;20338;-74
2022/03/09 03:15:54;;;;;;;18.92;9.45;;;;;;;-1.63;70.91;102115.81;5053496;28;20036;-74
2022/03/09 03:18:19;;;;;;;15.95;9.88;;;;;;;-1.66;71.19;102116.56;5051617;28;20128;-74
2022/03/09 03:20:45;;;;;;;17.70;10.05;;;;;;;-1.67;71.46;102117.38;5034353;28;20465;-74
2022/03/09 03:23:10;;;;;;;19.42;10.65;;;;;;;-1.73;71.40;102119.63;5033423;28;20029;-74
2022/03/09 03:25:35;;;;;;;16.90;10.02;;;;;;;-1.73;70.99;102123.88;5033154;28;20017;-74
2022/03/09 03:28:00;;;;;;;17.67;9.05;;;;;;;-1.74;70.70;102110.19;5034225;28;20022;-74
2022/03/09 03:30:26;;;;;;;19.95;10.02;;;;;;;-1.73;71.12;102118.75;5053293;28;20495;-74
2022/03/09 03:32:51;;;;;;;22.08;10.80;;;;;;;-1.73;72.01;102117.06;5048448;28;20030;-74
2022/03/09 03:35:16;;;;;;;18.00;9.90;;;;;;;-1.73;70.62;102119.63;5033226;28;20532;-74
2022/03/09 03:37:42;;;;;;;16.65;9.60;;;;;;;-1.73;70.36;102111.97;5033028;28;20037;-74
2022/03/09 03:40:08;;;;;;;17.08;9.48;;;;;;;-1.72;70.55;102115.38;5050736;28;20045;-74
2022/03/09 03:42:33;;;;;;;21.33;10.15;;;;;;;-1.75;71.67;102117.81;5053049;28;20530;-74
2022/03/09 03:44:58;;;;;;;18.75;11.13;;;;;;;-1.78;71.76;102118.53;5052956;28;20025;-74
2022/03/09 03:47:24;;;;;;;18.95;9.95;;;;;;;-1.81;71.17;102112.41;5052168;28;20021;-74
2022/03/09 03:49:49;;;;;;;18.08;10.35;;;;;;;-1.82;71.66;102108.97;5046758;28;20117;-74
2022/03/09 03:52:15;;;;;;;18.85;9.32;;;;;;;-1.81;71.33;102115.81;5052518;28;20037;-74
2022/03/09 03:54:40;;;;;;;18.25;10.18;;;;;;;-1.86;72.23;102114.75;5052132;28;20029;-74
2022/03/09 03:57:05;;;;;;;16.45;9.73;;;;;;;-1.84;70.62;102119.91;5053059;28;20452;-74
2022/03/09 03:59:31;;;;;;;20.10;10.63;;;;;;;-1.84;70.43;102120.78;5040417;28;20041;-75
2022/03/09 04:01:56;;;;;;;20.48;10.70;;;;;;;-1.82;72.18;102123.44;5045454;28;20044;-74
2022/03/09 04:04:21;;;;;;;18.35;9.65;;;;;;;-1.83;70.90;102120.00;5036267;28;20099;-74
2022/03/09 04:06:47;;;;;;;22.50;10.50;;;;;;;-1.86;72.18;102114.75;5032570;28;20505;-75
2022/03/09 04:09:12;;;;;;;21.00;9.82;;;;;;;-1.85;71.43;102121.59;5040227;28;20025;-74
2022/03/09 04:11:37;;;;;;;18.42;10.43;;;;;;;-1.85;71.48;102125.84;5052502;28;20033;-75
2022/03/09 04:14:03;;;;;;;20.45;10.93;;;;;;;-1.88;72.12;102122.31;5052740;28;20021;-75
2022/03/09 04:16:29;;;;;;;20.63;10.95;;;;;;;-1.89;72.70;102125.69;5051619;28;20055;-74
2022/03/09 04:18:54;;;;;;;19.35;10.30;;;;;;;-1.94;72.59;102128.81;5045354;28;20485;-74
2022/03/09 04:21:19;;;;;;;18.25;10.23;;;;;;;-1.91;72.03;102124.72;5031477;28;20034;-74
2022/03/09 04:23:44;;;;;;;18.13;10.32;;;;;;;-1.89;72.62;102123.13;5032429;28;20026;-74
2022/03/09 04:26:10;;;;;;;26.08;9.80;;;;;;;-1.93;72.70;102107.56;5032197;28;20037;-74
2022/03/09 04:28:35;;;;;;;19.73;10.52;;;;;;;-1.96;72.22;102110.88;5039379;28;20023;-74
2022/03/09 04:31:01;;;;;;;17.08;9.60;;;;;;;-1.94;72.12;102106.69;5052001;28;20377;-74
2022/03/09 04:33:26;;;;;;;17.67;9.57;;;;;;;-1.97;72.07;102111.66;5051994;28;20068;-74
2022/03/09 04:35:51;;;;;;;20.33;10.13;;;;;;;-1.96;72.35;102115.13;5051070;28;20032;-74
2022/03/09 04:38:17;;;;;;;17.77;9.02;;;;;;;-1.98;71.82;102107.34;5046748;28;20465;-74
2022/03/09 04:40:42;;;;;;;17.52;9.32;;;;;;;-1.95;71.82;102104.94;5032132;28;20065;-74
2022/03/09 04:43:07;;;;;;;18.20;9.85;;;;;;;-1.97;72.41;102100.56;5031574;28;20461;-74
2022/03/09 04:45:32;;;;;;;18.98;10.38;;;;;;;-1.98;72.53;102106.47;5032010;28;20032;-74
2022/03/09 04:47:58;;;;;;;19.63;10.52;;;;;;;-1.95;72.23;102106.63;5033749;28;20037;-75
2022/03/09 04:50:23;;;;;;;17.90;10.10;;;;;;;-2.01;71.63;102108.88;5039931;28;20065;-74
2022/03/09 04:52:48;;;;;;;19.45;9.75;;;;;;;-2.03;71.79;102111.34;5031707;28;20029;-75
2022/03/09 04:55:14;;;;;;;19.50;10.10;;;;;;;-2.05;71.55;102102.75;5050139;28;20039;-74
2022/03/09 04:57:39;;;;;;;20.15;10.93;;;;;;;-2.04;72.54;102106.19;5050654;28;20546;-74
2022/03/09 05:00:06;;;;;;;22.05;10.65;;;;;;;-2.17;72.31;102089.38;5032256;28;20043;-74
2022/03/09 05:02:31;;;;;;;19.77;10.27;;;;;;;-2.10;72.34;102100.78;5031684;28;20144;-74
2022/03/09 05:04:56;;;;;;;19.10;10.43;;;;;;;-2.15;73.03;102106.56;5031045;28;20109;-74
2022/03/09 05:07:22;;;;;;;18.23;9.75;;;;;;;-2.19;72.17;102112.31;5032591;28;20388;-74
2022/03/09 05:09:47;;;;;;;19.17;9.70;;;;;;;-2.24;73.57;102105.22;5031487;28;20120;-74
2022/03/09 05:12:12;;;;;;;17.70;9.57;;;;;;;-2.24;73.72;102110.34;5032145;28;20492;-74
2022/03/09 05:14:37;;;;;;;17.80;9.27;;;;;;;-2.29;73.22;102112.69;5050915;28;20024;-74
2022/03/09 05:17:03;;;;;;;18.92;9.90;;;;;;;-2.30;72.89;102113.47;5051773;28;20029;-74
2022/03/09 05:19:28;;;;;;;19.00;10.18;;;;;;;-2.32;72.98;102115.06;5031021;28;20040;-74
2022/03/09 05:21:54;;;;;;;23.00;10.13;;;;;;;-2.33;72.89;102109.88;5047993;28;20029;-74
2022/03/09 05:24:19;;;;;;;19.80;9.77;;;;;;;-2.33;73.49;102113.31;5051546;28;20047;-74
2022/03/09 05:26:48;;;;;;;20.75;10.25;;;;;;;-2.34;73.11;102114.13;5035577;28;20108;-74
2022/03/09 05:29:14;;;;;;;17.90;10.32;;;;;;;-2.39;73.27;102110.44;5048444;28;20037;-74
2022/03/09 05:31:41;;;;;;;17.45;9.48;;;;;;;-2.38;73.68;102118.19;5050418;28;20052;-74
2022/03/09 05:34:06;;;;;;;20.08;10.35;;;;;;;-2.40;74.16;102114.69;5051362;28;20036;-74
2022/03/09 05:36:32;;;;;;;18.42;9.75;;;;;;;-2.45;73.26;102112.72;5050972;28;20025;-74
2022/03/09 05:38:57;;;;;;;18.83;10.05;;;;;;;-2.43;73.57;102121.31;5034934;28;20456;-74
2022/03/09 05:41:23;;;;;;;23.88;10.75;;;;;;;-2.44;74.53;102123.00;5031209;28;20030;-74
2022/03/09 05:43:52;;;;;;;19.15;10.55;;;;;;;-2.45;74.69;102126.38;5031238;28;20488;-74
2022/03/09 05:46:17;;;;;;;25.10;10.85;;;;;;;-2.47;74.86;102125.41;5030709;28;20026;-74
2022/03/09 05:48:43;;;;;;;20.83;10.48;;;;;;;-2.43;75.00;102127.28;5043420;28;20408;-74
2022/03/09 05:51:08;;;;;;;18.30;10.05;;;;;;;-2.48;75.31;102118.53;5043758;28;20029;-74
2022/03/09 05:53:33;;;;;;;20.88;10.25;;;;;;;-2.46;74.25;102123.72;5030557;28;20017;-74
2022/03/09 05:55:59;;;;;;;20.10;10.65;;;;;;;-2.47;74.29;102134.75;5031340;28;20024;-74
2022/03/09 05:58:24;;;;;;;19.70;11.07;;;;;;;-2.48;74.65;102141.53;5040776;28;20036;-74
2022/03/09 06:00:49;;;;;;;21.98;11.07;;;;;;;-2.50;74.56;102147.34;5045850;28;20057;-74
2022/03/09 06:03:14;;;;;;;22.67;10.40;;;;;;;-2.60;75.10;102135.78;5031154;28;20022;-74
2022/03/09 06:05:40;;;;;;;19.90;10.00;;;;;;;-2.57;74.61;102148.72;5048882;28;20124;-74
2022/03/09 06:08:05;;;;;;;20.08;9.93;;;;;;;-2.58;75.04;102157.19;5050414;28;20053;-74
2022/03/09 06:10:30;;;;;;;17.38;9.50;;;;;;;-2.62;76.12;102158.72;5050156;28;20036;-74
2022/03/09 06:12:56;;;;;;;21.75;9.98;;;;;;;-2.62;75.98;102162.91;5031197;28;20056;-74
2022/03/09 06:15:21;;;;;;;21.77;10.50;;;;;;;-2.64;76.39;102155.19;5045057;28;20021;-74
2022/03/09 06:17:48;;;;;;;25.98;10.45;;;;;;;-2.62;77.01;102157.81;5050872;28;20079;-74
2022/03/09 06:20:19;;;;;;;21.42;10.20;;;;;;;-2.62;76.28;102168.94;5050642;28;20037;-74
2022/03/09 06:22:45;;;;;;;24.35;10.70;;;;;;;-2.63;76.26;102156.06;5048147;28;20031;-74
2022/03/09 06:25:14;;;;;;;20.40;9.68;;;;;;;-2.63;76.73;102163.72;5037262;28;20025;-74
2022/03/09 06:27:45;;;;;;;20.58;10.38;;;;;;;-2.63;76.69;102171.38;5033566;28;20021;-74
2022/03/09 06:30:12;;;;;;;28.42;11.45;;;;;;;-2.66;76.70;102167.00;5033625;28;20108;-74
2022/03/09 06:32:38;;;;;;;26.83;10.20;;;;;;;-2.64;77.04;102164.53;5035247;28;20128;-74
2022/03/09 06:35:04;;;;;;;23.25;11.43;;;;;;;-2.61;77.22;102167.25;5040351;28;20512;-74
2022/03/09 06:37:30;;;;;;;21.75;10.93;;;;;;;-2.59;77.07;102163.94;5034334;28;20043;-74
2022/03/09 06:39:56;;;;;;;30.77;11.68;;;;;;;-2.56;77.34;102170.88;5046933;28;20473;-74
2022/03/09 06:42:23;;;;;;;26.88;10.82;;;;;;;-2.55;77.37;102166.66;5052994;28;20486;-74
2022/03/09 06:44:48;;;;;;;34.13;10.57;;;;;;;-2.49;76.51;102183.16;5052650;28;20025;-74
2022/03/09 06:47:13;;;;;;;26.90;11.13;;;;;;;-2.45;76.71;102181.69;5033957;28;20505;-74
2022/03/09 06:49:38;;;;;;;22.63;10.75;;;;;;;-2.37;75.99;102188.03;5033013;28;20129;-74
2022/03/09 06:52:04;;;;;;;26.15;10.90;;;;;;;-2.31;76.48;102190.03;5035418;28;20029;-74
2022/03/09 06:54:30;;;;;;;29.50;11.23;;;;;;;-2.22;75.89;102196.47;5033966;28;20520;-74
2022/03/09 06:56:55;;;;;;;22.05;10.32;;;;;;;-2.15;75.67;102202.78;5035574;28;20415;-74
2022/03/09 06:59:20;;;;;;;28.75;11.05;;;;;;;-2.08;75.64;102204.81;5033597;28;20038;-74
2022/03/09 07:01:46;;;;;;;27.48;10.90;;;;;;;-2.04;75.87;102196.50;5045718;28;20047;-74
2022/03/09 07:04:11;;;;;;;27.58;11.02;;;;;;;-1.94;75.74;102198.69;5053077;28;20028;-74
2022/03/09 07:06:36;;;;;;;30.98;10.93;;;;;;;-1.94;74.18;102192.72;5042988;28;20033;-74
2022/03/09 07:09:02;;;;;;;27.30;9.77;;;;;;;-1.76;73.78;102202.97;5052093;28;20033;-74
2022/03/09 07:11:27;;;;;;;23.38;9.75;;;;;;;-1.67;73.35;102214.53;5048691;28;20404;-74
2022/03/09 07:13:53;;;;;;;21.20;10.38;;;;;;;-1.59;72.62;102209.78;5051720;28;20025;-74
2022/03/09 07:16:18;;;;;;;31.45;11.43;;;;;;;-1.50;71.82;102199.13;5057085;28;20032;-74
2022/03/09 07:18:43;;;;;;;22.70;10.90;;;;;;;-1.30;71.51;102210.28;5048802;28;20030;-74
2022/03/09 07:21:08;;;;;;;21.20;10.80;;;;;;;-1.23;71.07;102199.53;5033957;28;20025;-74
2022/03/09 07:23:34;;;;;;;21.77;10.20;;;;;;;-1.08;71.22;102202.78;5034495;28;20037;-74
2022/03/09 07:25:59;;;;;;;19.80;10.75;;;;;;;-0.94;70.29;102200.84;5032618;28;20437;-74
2022/03/09 07:28:24;;;;;;;25.50;9.63;;;;;;;-0.86;70.10;102203.75;5033127;28;20033;-73
2022/03/09 07:30:49;;;;;;;20.08;10.15;;;;;;;-0.73;70.35;102200.94;5033122;28;20040;-75
2022/03/09 07:33:15;;;;;;;17.90;9.43;;;;;;;-0.62;69.55;102199.72;5046320;28;20043;-75
2022/03/09 07:35:41;;;;;;;16.40;9.38;;;;;;;-0.48;68.38;102203.75;5052279;28;20483;-75
2022/03/09 07:38:07;;;;;;;20.75;9.18;;;;;;;-0.30;66.07;102193.41;5052801;28;20044;-75
2022/03/09 07:40:32;;;;;;;19.20;9.80;;;;;;;-0.10;66.77;102196.84;5052317;28;20024;-75
2022/03/09 07:42:58;;;;;;;17.02;9.02;;;;;;;0.02;65.85;102188.75;5052988;28;20044;-75
2022/03/09 07:45:23;;;;;;;19.90;9.68;;;;;;;0.20;65.84;102194.66;5051859;28;20485;-75
2022/03/09 07:47:48;;;;;;;18.75;9.15;;;;;;;0.34;64.34;102196.88;5052474;28;20025;-75
2022/03/09 07:50:14;;;;;;;15.88;9.82;;;;;;;0.49;63.71;102188.91;5051716;28;20033;-76
2022/03/09 07:52:39;;;;;;;19.52;10.18;;;;;;;0.63;62.85;102190.34;5060221;28;20495;-73
2022/03/09 07:55:05;;;;;;;19.50;9.75;;;;;;;0.79;61.65;102189.25;5052312;28;20029;-75
2022/03/09 07:57:31;;;;;;;16.60;9.25;;;;;;;0.91;61.55;102184.53;5052119;28;20044;-75
2022/03/09 07:59:56;;;;;;;19.55;10.35;;;;;;;1.04;61.16;102191.88;5039486;28;20323;-75
2022/03/09 08:02:21;;;;;;;18.45;9.85;;;;;;;1.17;62.15;102190.66;5032532;28;20079;-75
2022/03/09 08:04:46;;;;;;;18.25;9.55;;;;;;;1.27;60.15;102194.41;5032490;28;20354;-75
2022/03/09 08:07:12;;;;;;;20.27;9.82;;;;;;;1.36;60.08;102190.50;5031903;28;20056;-75
2022/03/09 08:09:37;;;;;;;17.77;9.35;;;;;;;1.45;59.40;102195.09;5032730;28;20080;-75
2022/03/09 08:12:03;;;;;;;23.67;10.50;;;;;;;1.57;58.33;102203.25;5032769;28;20036;-75
2022/03/09 08:14:28;;;;;;;18.80;10.32;;;;;;;1.67;58.09;102198.41;5031727;28;20059;-75
2022/03/09 08:16:53;;;;;;;17.15;9.93;;;;;;;1.70;57.81;102201.06;5032239;28;20049;-75
2022/03/09 08:19:18;;;;;;;21.83;10.05;;;;;;;1.86;57.32;102208.50;5032248;28;20102;-75
2022/03/09 08:21:44;;;;;;;17.27;9.80;;;;;;;1.93;57.00;102205.34;5031683;28;20022;-76
2022/03/09 08:24:09;;;;;;;16.17;9.68;;;;;;;1.99;56.82;102210.66;5032407;28;20033;-75
2022/03/09 08:26:34;;;;;;;20.25;10.75;;;;;;;2.15;56.56;102216.31;5032488;28;20025;-75
2022/03/09 08:28:59;;;;;;;17.67;9.88;;;;;;;2.26;55.92;102215.88;5031412;28;20120;-75
2022/03/09 08:31:26;;;;;;;17.33;9.23;;;;;;;2.32;55.61;102204.88;5032082;28;20025;-76
2022/03/09 08:33:51;;;;;;;23.10;9.98;;;;;;;2.40;55.48;102213.72;5032146;28;20029;-76
2022/03/09 08:36:16;;;;;;;19.58;10.10;;;;;;;2.42;55.43;102194.06;5031486;28;20036;-76
2022/03/09 08:38:41;;;;;;;17.90;9.93;;;;;;;2.58;54.93;102213.41;5032000;28;20037;-75
2022/03/09 08:41:07;;;;;;;21.58;9.40;;;;;;;2.66;54.90;102211.09;5032170;28;20025;-75
2022/03/09 08:43:32;;;;;;;17.63;10.10;;;;;;;2.66;55.07;102211.97;5031285;28;20029;-75
2022/03/09 08:45:57;;;;;;;18.35;10.00;;;;;;;2.77;53.70;102209.72;5031790;28;20111;-75
2022/03/09 08:48:26;;;;;;;20.00;10.43;;;;;;;2.90;54.83;102213.53;5031655;28;20037;-76
2022/03/09 08:50:52;;;;;;;18.77;10.20;;;;;;;2.97;53.52;102216.31;5030849;28;20037;-75
2022/03/09 08:53:17;;;;;;;18.40;10.63;;;;;;;3.08;54.38;102224.41;5031713;28;20108;-75
2022/03/09 08:55:42;;;;;;;20.92;10.75;;;;;;;3.19;52.98;102219.53;5031123;28;20104;-75
2022/03/09 08:58:08;;;;;;;19.20;11.38;;;;;;;3.29;53.17;102217.25;5031995;28;20025;-76
2022/03/09 09:00:33;;;;;;;20.40;11.05;;;;;;;3.39;52.89;102226.13;5031602;28;20104;-75
2022/03/09 09:02:58;;;;;;;18.30;10.25;;;;;;;3.48;52.12;102220.38;5031013;28;20095;-76
2022/03/09 09:05:23;;;;;;;17.58;9.80;;;;;;;3.62;52.46;102220.75;5031570;28;20081;-76
2022/03/09 09:07:49;;;;;;;18.10;10.65;;;;;;;3.71;52.33;102216.69;5031770;28;20030;-75
2022/03/09 09:10:14;;;;;;;20.42;11.13;;;;;;;3.81;51.31;102214.38;5030976;28;20075;-75
2022/03/09 09:12:40;;;;;;;20.13;10.52;;;;;;;3.92;51.83;102211.25;5031612;28;20381;-76
2022/03/09 09:15:06;;;;;;;22.27;11.65;;;;;;;4.01;50.96;102209.72;5031745;28;20113;-76
2022/03/09 09:17:31;;;;;;;21.05;10.68;;;;;;;4.08;51.27;102212.47;5030817;28;20025;-76
2022/03/09 09:19:57;;;;;;;22.33;11.70;;;;;;;4.18;51.22;102209.28;5031440;28;20045;-75
2022/03/09 09:22:22;;;;;;;21.20;11.32;;;;;;;4.31;50.63;102197.56;5031357;28;20031;-75
2022/03/09 09:24:47;;;;;;;22.40;11.55;;;;;;;4.47;50.66;102194.50;5030623;28;20091;-75
2022/03/09 09:27:13;;;;;;;19.70;11.30;;;;;;;4.61;50.57;102202.59;5031433;28;20104;-75
2022/03/09 09:29:38;;;;;;;24.48;11.35;;;;;;;4.76;50.52;102196.00;5031294;28;20022;-76
2022/03/09 09:32:04;;;;;;;19.02;11.23;;;;;;;4.92;49.98;102196.38;5030936;28;20037;-76
2022/03/09 09:34:29;;;;;;;23.02;11.70;;;;;;;5.05;50.06;102197.50;5031354;28;20492;-75
2022/03/09 09:36:54;;;;;;;20.58;11.20;;;;;;;5.20;49.74;102190.91;5031353;28;20028;-76
2022/03/09 09:39:20;;;;;;;21.10;11.18;;;;;;;5.32;48.83;102192.00;5030556;28;20172;-76
2022/03/09 09:41:49;;;;;;;25.98;12.23;;;;;;;5.50;48.72;102204.44;5031274;28;20025;-76
2022/03/09 09:44:15;;;;;;;24.10;11.88;;;;;;;5.60;48.63;102201.19;5031200;28;20029;-76
2022/03/09 09:46:43;;;;;;;23.02;12.00;;;;;;;5.69;48.45;102195.31;5030454;28;20451;-76
2022/03/09 09:49:10;;;;;;;23.00;12.90;;;;;;;5.85;48.00;102199.94;5031402;28;20072;-76
2022/03/09 09:51:39;;;;;;;21.95;12.45;;;;;;;5.98;47.91;102194.97;5031594;28;20032;-75
2022/03/09 09:54:07;;;;;;;23.20;12.23;;;;;;;6.05;47.32;102192.53;5030810;28;20057;-75
2022/03/09 09:56:38;;;;;;;25.27;12.95;;;;;;;6.15;47.19;102197.84;5031152;28;20374;-76
2022/03/09 09:59:05;;;;;;;24.23;12.40;;;;;;;6.25;47.27;102203.22;5030576;28;20033;-75
2022/03/09 10:01:30;;;;;;;25.33;12.60;;;;;;;6.34;46.75;102192.09;5033672;28;20029;-76
2022/03/09 10:03:55;;;;;;;24.50;12.50;;;;;;;6.50;47.36;102198.41;5034993;28;20033;-75
2022/03/09 10:06:21;;;;;;;27.83;13.35;;;;;;;6.56;47.65;102191.59;5050640;28;20385;-76
2022/03/09 10:09:19;;;;;;;20.95;13.02;;;;;;;6.64;48.82;102196.00;5054497;28;20044;-76
2022/03/09 10:11:55;;;;;;;25.85;13.57;;;;;;;6.75;48.40;102197.91;5029610;28;20436;-76
2022/03/09 10:14:50;;;;;;;22.65;13.68;;;;;;;6.92;47.96;102199.88;5068876;28;20115;-76
2022/03/09 10:17:18;;;;;;;22.60;13.30;;;;;;;6.99;46.94;102192.16;5074596;28;20039;-76
2022/03/09 10:19:52;;;;;;;24.73;13.93;;;;;;;7.04;46.81;102190.53;5074466;28;20048;-76
2022/03/09 10:22:41;;;;;;;29.63;13.88;;;;;;;7.11;47.60;102191.47;5074092;28;20028;-76
2022/03/09 10:25:08;;;;;;;23.85;13.88;;;;;;;7.31;46.43;102180.47;5074913;28;20040;-76
2022/03/09 10:27:51;;;;;;;25.48;14.23;;;;;;;7.44;49.08;102179.75;5071874;28;20020;-76
2022/03/09 10:30:22;;;;;;;26.67;15.13;;;;;;;7.58;45.87;102177.28;5074229;28;20039;-76
2022/03/09 10:32:59;;;;;;;30.35;14.38;;;;;;;7.67;46.23;102172.19;5072098;28;20460;-75
2022/03/09 10:35:30;;;;;;;27.52;14.32;;;;;;;7.82;46.41;102174.09;5073473;28;20025;-76
2022/03/09 10:38:07;;;;;;;26.70;14.90;;;;;;;7.95;44.67;102163.81;5073912;28;20520;-76
2022/03/09 10:40:39;;;;;;;28.02;15.10;;;;;;;8.11;45.66;102172.59;5073959;28;20025;-76
2022/03/09 10:43:25;;;;;;;24.98;13.68;;;;;;;8.19;44.58;102175.25;5073825;28;20028;-76
2022/03/09 10:46:11;;;;;;;22.38;13.82;;;;;;;8.29;45.11;102174.44;5074179;28;20024;-76
2022/03/09 10:48:54;;;;;;;29.65;14.65;;;;;;;8.37;45.04;102169.31;5071423;28;20515;-76
2022/03/09 10:51:41;;;;;;;28.45;13.70;;;;;;;8.51;44.81;102175.50;5074238;28;20021;-76
2022/03/09 10:54:25;;;;;;;30.02;15.27;;;;;;;8.67;45.67;102166.06;5074410;28;20029;-76
2022/03/09 10:57:03;;;;;;;27.70;13.77;;;;;;;8.87;45.17;102174.84;5071454;28;20032;-76
2022/03/09 10:59:29;;;;;;;24.30;14.35;;;;;;;9.01;43.53;102180.09;5073679;28;20078;-76
2022/03/09 11:02:06;;;;;;;32.78;15.20;;;;;;;9.14;43.96;102168.88;5055069;28;20033;-76
2022/03/09 11:04:32;;;;;;;27.63;14.68;;;;;;;9.30;43.07;102169.81;5054580;28;20051;-76
2022/03/09 11:06:58;;;;;;;29.17;15.32;;;;;;;9.44;42.68;102171.56;5053620;28;20526;-76
2022/03/09 11:09:23;;;;;;;28.67;14.77;;;;;;;9.56;42.44;102176.81;5052815;28;20500;-77
2022/03/09 11:11:49;;;;;;;29.77;15.52;;;;;;;9.68;43.88;102165.53;5053011;28;20472;-82